Date,TemperatureHighF,TemperatureAvgF,TemperatureLowF,DewpointHighF,DewpointAvgF,DewpointLowF,HumidityHigh,HumidityAvg,HumidityLow,PressureMaxIn,PressureMinIn,WindSpeedMaxMPH,WindSpeedAvgMPH,GustSpeedMaxMPH,PrecipitationSumIn
2013-9-1,79.7,69.6,64.3,73.0,67.3,63.0,99,94,71,29.77,29.57,11,1,11,0.05
2013-9-2,67.8,64.8,62.1,67.0,64.0,61.0,99,98,98,29.78,29.57,14,1,14,3.41
2013-9-3,73.6,67.3,64.9,72.0,66.5,64.0,99,98,91,29.59,29.51,12,2,12,0.72
2013-9-4,76.0,67.3,61.7,66.0,61.9,57.0,99,85,55,29.69,29.52,11,2,11,0.00
2013-9-5,67.7,59.3,49.6,61.0,53.9,43.0,98,85,42,29.87,29.64,10,1,10,0.50
2013-9-6,66.1,55.6,43.1,54.0,45.9,36.0,97,73,38,30.00,29.81,13,2,15,0.00
2013-9-7,69.6,61.3,55.9,59.0,56.3,52.0,98,85,58,29.82,29.57,16,2,16,0.00
2013-9-8,63.4,58.7,48.7,60.0,54.0,44.0,98,87,51,29.78,29.47,15,2,15,0.39
2013-9-9,63.6,54.5,43.5,57.0,47.1,40.0,97,78,49,29.98,29.78,17,2,17,0.00
2013-9-10,67.0,60.9,57.3,61.0,59.1,56.0,98,94,80,29.93,29.85,14,3,14,0.00
2013-9-11,73.8,65.9,60.1,69.0,64.4,59.0,99,96,85,29.86,29.72,16,2,16,0.05
2013-9-12,77.3,66.4,63.1,72.0,65.3,62.0,99,97,82,29.83,29.49,14,2,17,0.24
2013-9-13,66.6,63.3,58.8,66.0,62.5,58.0,99,98,98,29.49,29.38,13,1,13,0.41
2013-9-14,71.7,61.9,56.1,62.0,58.8,55.0,98,91,64,29.78,29.43,9,1,10,0.00
2013-9-15,65.7,57.7,49.6,56.0,53.0,49.0,97,86,60,29.92,29.77,13,2,13,0.00
2013-9-16,65.1,56.1,45.3,58.0,52.8,36.0,98,90,69,29.96,29.73,16,2,17,0.01
2013-9-17,66.7,52.3,42.0,50.0,43.3,36.0,97,74,43,30.14,29.96,12,2,12,0.00
2013-9-18,69.4,56.6,43.8,56.0,47.9,43.0,97,76,44,30.06,29.85,10,2,12,0.00
2013-9-19,74.8,60.5,47.8,54.0,50.2,47.0,97,72,41,29.92,29.80,10,2,10,0.00
2013-9-20,76.3,61.0,50.4,58.0,53.0,49.0,97,79,44,29.92,29.77,11,1,11,0.00
2013-9-21,67.8,59.9,52.7,61.0,58.2,52.0,98,95,77,29.83,29.61,16,3,18,0.00
2013-9-22,65.3,61.6,55.5,64.0,60.7,53.0,98,98,91,29.61,29.40,28,4,28,0.49
2013-9-23,58.4,52.8,47.1,53.0,46.5,43.0,97,80,63,29.64,29.47,13,3,13,0.00
2013-9-24,53.0,51.3,47.8,49.0,46.1,42.0,97,82,71,29.63,29.54,11,4,13,0.05
2013-9-25,62.2,54.1,50.3,52.0,49.1,47.0,96,84,62,29.70,29.56,14,2,14,0.00
2013-9-26,64.1,55.8,48.9,53.0,50.7,48.0,97,84,63,29.86,29.70,12,2,12,0.00
2013-9-27,74.8,60.1,50.8,56.0,52.8,49.0,97,80,44,30.00,29.86,11,1,12,0.00
2013-9-28,71.4,58.5,47.5,58.0,52.2,46.0,97,83,54,30.14,29.98,7,1,8,0.00